Time;durP1;ratioP1;P1;durP2;ratioP2;P2;SDS_P1;SDS_P2;PMS_P1;PMS_P2;Temp;Humidity;BMP_temperature;BMP_pressure;BME280_temperature;BME280_humidity;BME280_pressure;Samples;Min_cycle;Max_cycle;Signal;HPM_P1;HPM_P2
2021/07/09 00:01:21;;;;;;;3.17;2.97;;;;;24.00;101015.00;;;;2049771;28;20645;-65
2021/07/09 00:02:21;;;;;;;3.77;3.47;;;;;24.00;101015.00;;;;2049728;28;20281;-65
2021/07/09 00:03:22;;;;;;;4.10;3.27;;;;;24.00;101018.00;;;;2058622;28;20458;-65
2021/07/09 00:04:22;;;;;;;3.10;2.90;;;;;24.00;101017.00;;;;2059031;28;20208;-66
2021/07/09 00:05:22;;;;;;;3.40;3.10;;;;;24.00;101016.00;;;;2059039;28;20211;-66
2021/07/09 00:06:23;;;;;;;3.00;2.73;;;;;24.00;101010.00;;;;2058860;28;20776;-66
2021/07/09 00:07:23;;;;;;;3.50;3.20;;;;;24.00;101019.00;;;;2058888;28;20718;-65
2021/07/09 00:08:24;;;;;;;3.10;2.90;;;;;24.00;101014.00;;;;2047079;28;20301;-65
2021/07/09 00:09:24;;;;;;;3.97;3.60;;;;;24.00;101027.00;;;;2057548;28;20242;-67
2021/07/09 00:10:25;;;;;;;3.67;3.37;;;;;24.00;101020.00;;;;2056281;28;20259;-68
2021/07/09 00:11:25;;;;;;;3.50;3.10;;;;;24.00;101018.00;;;;2058175;28;20220;-68
2021/07/09 00:12:25;;;;;;;3.50;3.20;;;;;24.00;101003.00;;;;2058292;28;20207;-68
2021/07/09 00:13:26;;;;;;;3.00;2.80;;;;;24.00;101015.00;;;;2058346;28;20214;-68
2021/07/09 00:14:30;;;;;;;3.20;2.90;;;;;24.00;101014.00;;;;2058285;28;20281;-68
2021/07/09 00:15:31;;;;;;;3.25;3.00;;;;;24.00;101016.00;;;;2058557;28;20238;-68
2021/07/09 00:16:31;;;;;;;3.60;3.20;;;;;24.00;101015.00;;;;2058824;28;20215;-68
2021/07/09 00:17:31;;;;;;;3.20;3.00;;;;;24.00;101014.00;;;;2059011;28;20220;-68
2021/07/09 00:18:32;;;;;;;3.77;3.13;;;;;24.00;101012.00;;;;2059083;28;20760;-67
2021/07/09 00:19:32;;;;;;;3.60;3.30;;;;;24.00;101011.00;;;;2058747;28;20581;-67
2021/07/09 00:20:32;;;;;;;3.03;2.83;;;;;24.00;101016.00;;;;2057708;28;20207;-67
2021/07/09 00:21:33;;;;;;;3.33;3.03;;;;;24.00;101019.00;;;;2058352;28;20357;-67
2021/07/09 00:22:34;;;;;;;3.20;2.90;;;;;24.00;101015.00;;;;2059712;28;20215;-67
2021/07/09 00:23:34;;;;;;;3.17;2.87;;;;;24.00;101021.00;;;;2062000;28;20219;-67
2021/07/09 00:24:35;;;;;;;3.20;3.00;;;;;23.90;101006.00;;;;2062599;28;20229;-68
2021/07/09 00:25:36;;;;;;;3.80;2.87;;;;;23.90;101011.00;;;;2062954;28;20206;-68
2021/07/09 00:26:36;;;;;;;3.35;2.92;;;;;23.90;101013.00;;;;2062006;28;20265;-67
2021/07/09 00:27:37;;;;;;;3.47;3.17;;;;;23.90;101010.00;;;;2060523;28;20965;-68
2021/07/09 00:28:37;;;;;;;2.97;2.73;;;;;24.00;101006.00;;;;2051468;28;20679;-68
2021/07/09 00:29:37;;;;;;;3.07;2.87;;;;;24.00;101014.00;;;;2051151;28;20583;-68
2021/07/09 00:30:38;;;;;;;2.80;2.60;;;;;24.00;101002.00;;;;2059178;28;20309;-68
2021/07/09 00:31:38;;;;;;;3.53;3.23;;;;;24.00;101010.00;;;;2059972;28;20266;-68
2021/07/09 00:32:38;;;;;;;2.60;2.40;;;;;24.00;101008.00;;;;2059906;28;20687;-68
2021/07/09 00:33:39;;;;;;;3.40;3.10;;;;;24.00;101009.00;;;;2060276;28;20216;-68
2021/07/09 00:34:39;;;;;;;3.07;2.87;;;;;24.00;101007.00;;;;2060485;28;20278;-68
2021/07/09 00:35:40;;;;;;;2.90;2.70;;;;;24.00;101003.00;;;;2060724;28;20219;-68
2021/07/09 00:36:40;;;;;;;2.87;2.67;;;;;24.10;101005.00;;;;2060330;28;20792;-67
2021/07/09 00:37:40;;;;;;;2.90;2.70;;;;;24.10;101004.00;;;;2059755;28;20218;-67
2021/07/09 00:38:40;;;;;;;2.60;2.40;;;;;24.00;101005.00;;;;2059436;28;20218;-67
2021/07/09 00:39:41;;;;;;;2.83;2.63;;;;;24.00;101003.00;;;;2059668;28;20221;-67
2021/07/09 00:40:41;;;;;;;3.43;2.73;;;;;24.00;101001.00;;;;2059191;28;20343;-67
2021/07/09 00:41:42;;;;;;;3.00;2.80;;;;;24.00;101001.00;;;;2060245;28;20219;-67
2021/07/09 00:42:42;;;;;;;3.30;3.10;;;;;24.00;100992.00;;;;2060617;28;20728;-67
2021/07/09 00:43:43;;;;;;;3.10;2.90;;;;;24.00;101011.00;;;;2051916;28;20770;-67
2021/07/09 00:44:43;;;;;;;3.10;2.80;;;;;24.00;101002.00;;;;2051847;28;20215;-67
2021/07/09 00:45:43;;;;;;;2.37;2.27;;;;;24.00;101003.00;;;;2060188;28;20214;-67
2021/07/09 00:46:45;;;;;;;3.20;2.90;;;;;24.00;101005.00;;;;2059507;28;20226;-67
2021/07/09 00:47:46;;;;;;;3.15;2.95;;;;;24.00;100991.00;;;;2059359;28;20218;-67
2021/07/09 00:48:46;;;;;;;2.88;2.55;;;;;24.00;101001.00;;;;2051047;28;20220;-67
2021/07/09 00:49:49;;;;;;;3.10;2.90;;;;;24.00;100997.00;;;;2051174;28;20216;-67
2021/07/09 00:50:49;;;;;;;2.70;2.50;;;;;24.00;100998.00;;;;2059776;28;20223;-67
2021/07/09 00:51:50;;;;;;;3.73;2.90;;;;;24.00;100999.00;;;;2060580;28;20710;-67
2021/07/09 00:52:50;;;;;;;3.83;2.73;;;;;24.00;100997.00;;;;2060424;28;20238;-67
2021/07/09 00:53:50;;;;;;;3.10;2.43;;;;;24.00;101000.00;;;;2060578;28;20215;-67
2021/07/09 00:54:51;;;;;;;2.83;2.63;;;;;24.00;100994.00;;;;2060634;28;20218;-67
2021/07/09 00:55:52;;;;;;;2.92;2.70;;;;;23.90;100999.00;;;;2059421;28;20824;-65
2021/07/09 00:56:52;;;;;;;4.30;2.97;;;;;23.90;100994.00;;;;2056873;28;20319;-64
2021/07/09 00:57:53;;;;;;;3.13;2.83;;;;;23.90;100999.00;;;;2043273;29;20661;-65
2021/07/09 00:58:53;;;;;;;3.10;2.80;;;;;23.90;100995.00;;;;2040191;28;20676;-65
2021/07/09 00:59:53;;;;;;;3.03;2.57;;;;;23.90;100996.00;;;;2043512;28;20205;-65
2021/07/09 01:00:54;;;;;;;2.67;2.47;;;;;24.00;100993.00;;;;2049251;28;20215;-65
2021/07/09 01:01:59;;;;;;;2.57;2.37;;;;;23.90;100981.00;;;;2060057;28;20215;-65
2021/07/09 01:02:59;;;;;;;3.17;2.90;;;;;23.90;100995.00;;;;2046103;29;20467;-65
2021/07/09 01:03:59;;;;;;;3.10;2.80;;;;;24.00;100991.00;;;;2043839;28;20264;-65
2021/07/09 01:05:00;;;;;;;3.30;2.40;;;;;23.90;100985.00;;;;2059543;28;20212;-65
2021/07/09 01:06:00;;;;;;;3.23;2.73;;;;;23.90;100988.00;;;;2059135;28;20219;-65
2021/07/09 01:07:00;;;;;;;3.00;2.80;;;;;24.00;100990.00;;;;2051604;28;20216;-64
2021/07/09 01:08:03;;;;;;;2.73;2.53;;;;;23.90;100994.00;;;;2051612;28;20252;-64
2021/07/09 01:09:04;;;;;;;2.85;2.65;;;;;23.90;100992.00;;;;2059748;28;20214;-64
2021/07/09 01:10:08;;;;;;;3.00;2.70;;;;;23.90;100986.00;;;;2059917;28;20346;-64
2021/07/09 01:11:08;;;;;;;3.55;3.00;;;;;23.90;100990.00;;;;2058798;28;20218;-64
2021/07/09 01:12:09;;;;;;;3.10;2.80;;;;;23.90;100986.00;;;;2059468;28;20215;-64
2021/07/09 01:13:10;;;;;;;2.70;2.47;;;;;23.90;100983.00;;;;2059405;28;20563;-64
2021/07/09 01:14:10;;;;;;;2.80;2.60;;;;;23.90;100988.00;;;;2059732;28;20563;-64
2021/07/09 01:15:12;;;;;;;2.90;2.63;;;;;23.90;100985.00;;;;2060164;28;20732;-64
2021/07/09 01:16:12;;;;;;;2.75;2.55;;;;;23.90;100985.00;;;;2059737;28;20758;-64
2021/07/09 01:17:13;;;;;;;2.77;2.57;;;;;23.90;100981.00;;;;2060042;28;20211;-64
2021/07/09 01:18:13;;;;;;;3.00;2.70;;;;;23.90;100981.00;;;;2059151;28;20227;-64
2021/07/09 01:19:15;;;;;;;4.43;2.80;;;;;23.90;100986.00;;;;2059321;28;20211;-64
2021/07/09 01:20:18;;;;;;;2.97;2.78;;;;;23.90;100980.00;;;;2058819;28;20207;-64
2021/07/09 01:21:18;;;;;;;3.08;2.75;;;;;23.90;100985.00;;;;2059349;28;20215;-64
2021/07/09 01:22:19;;;;;;;3.20;2.60;;;;;23.90;100981.00;;;;2060029;28;20702;-66
2021/07/09 01:23:20;;;;;;;2.77;2.57;;;;;23.90;100979.00;;;;2043405;29;20221;-65
2021/07/09 01:24:20;;;;;;;3.45;2.97;;;;;23.90;100978.00;;;;2044305;28;20225;-65
2021/07/09 01:25:22;;;;;;;2.70;2.50;;;;;23.90;100985.00;;;;2048225;28;20216;-65
2021/07/09 01:26:22;;;;;;;2.50;2.28;;;;;23.90;100979.00;;;;2046124;28;20251;-65
2021/07/09 01:27:23;;;;;;;2.87;2.67;;;;;23.90;100986.00;;;;2060159;28;20219;-64
2021/07/09 01:28:23;;;;;;;2.50;2.30;;;;;23.90;100976.00;;;;2059575;28;20212;-64
2021/07/09 01:29:23;;;;;;;2.80;2.60;;;;;23.90;100976.00;;;;2060009;28;20264;-65
2021/07/09 01:30:24;;;;;;;2.63;2.43;;;;;23.90;100977.00;;;;2059032;28;20246;-65
2021/07/09 01:31:24;;;;;;;2.60;2.40;;;;;23.90;100977.00;;;;2059002;28;20253;-65
2021/07/09 01:32:24;;;;;;;3.33;2.77;;;;;23.90;100974.00;;;;2059001;28;20242;-65
2021/07/09 01:33:25;;;;;;;2.97;2.77;;;;;23.90;100982.00;;;;2049731;28;20228;-65
2021/07/09 01:34:25;;;;;;;3.40;3.10;;;;;23.90;100980.00;;;;2050740;28;20259;-65
2021/07/09 01:35:26;;;;;;;2.93;2.63;;;;;23.90;100979.00;;;;2058933;28;20225;-65
2021/07/09 01:36:26;;;;;;;2.73;2.47;;;;;23.90;100979.00;;;;2059921;28;20220;-65
2021/07/09 01:37:27;;;;;;;2.27;2.10;;;;;23.90;100978.00;;;;2060020;28;20516;-65
2021/07/09 01:38:27;;;;;;;2.40;2.20;;;;;23.90;100979.00;;;;2059858;28;20591;-65
2021/07/09 01:39:27;;;;;;;2.60;2.40;;;;;23.90;100988.00;;;;2058567;28;20759;-64
2021/07/09 01:40:28;;;;;;;4.57;2.20;;;;;23.90;100985.00;;;;2058636;28;20314;-64
2021/07/09 01:41:28;;;;;;;2.63;2.43;;;;;23.90;100985.00;;;;2059227;28;20223;-66
2021/07/09 01:42:29;;;;;;;2.80;2.60;;;;;23.90;100983.00;;;;2059304;28;20220;-65
2021/07/09 01:43:29;;;;;;;2.50;2.30;;;;;23.90;100985.00;;;;2059720;28;20243;-66
2021/07/09 01:44:30;;;;;;;2.70;2.50;;;;;23.90;100985.00;;;;2059586;28;20350;-65
2021/07/09 01:45:30;;;;;;;3.07;2.77;;;;;23.90;100985.00;;;;2059724;28;20219;-65
2021/07/09 01:46:31;;;;;;;2.40;2.20;;;;;23.90;100978.00;;;;2059755;28;20868;-64
2021/07/09 01:47:31;;;;;;;2.60;2.40;;;;;23.90;100981.00;;;;2059194;28;20666;-64
2021/07/09 01:48:31;;;;;;;2.70;2.50;;;;;23.90;100973.00;;;;2059203;28;20226;-64
2021/07/09 01:49:46;;;;;;;2.87;2.67;;;;;23.90;100975.00;;;;2059003;28;20215;-64
2021/07/09 01:50:47;;;;;;;2.70;2.05;;;;;23.90;100983.00;;;;2058439;28;20211;-65
2021/07/09 01:51:47;;;;;;;2.83;2.63;;;;;23.90;100965.00;;;;2059094;28;20215;-64
2021/07/09 01:52:47;;;;;;;3.07;2.50;;;;;23.90;100966.00;;;;2042546;29;20799;-64
2021/07/09 01:53:48;;;;;;;3.10;2.77;;;;;23.90;100970.00;;;;2042183;29;20232;-64
2021/07/09 01:54:49;;;;;;;2.57;2.30;;;;;23.90;100972.00;;;;2059997;28;20207;-64
2021/07/09 01:55:49;;;;;;;2.90;2.70;;;;;23.90;100971.00;;;;2059078;28;20211;-64
2021/07/09 01:56:49;;;;;;;2.47;2.27;;;;;23.90;100966.00;;;;2061441;28;20789;-64
2021/07/09 01:57:50;;;;;;;2.57;2.37;;;;;23.90;100965.00;;;;2059660;28;20678;-64
2021/07/09 01:58:52;;;;;;;2.77;2.37;;;;;23.90;100961.00;;;;2059119;28;20293;-64
2021/07/09 01:59:52;;;;;;;2.67;2.47;;;;;23.90;100966.00;;;;2050083;28;20310;-64
2021/07/09 02:00:52;;;;;;;2.80;2.40;;;;;23.90;100964.00;;;;2050011;28;20806;-64
2021/07/09 02:01:53;;;;;;;2.60;2.40;;;;;23.90;100965.00;;;;2058850;28;20667;-65
2021/07/09 02:02:53;;;;;;;2.67;2.47;;;;;23.90;100963.00;;;;2059529;28;20259;-65
2021/07/09 02:03:53;;;;;;;2.50;2.30;;;;;23.90;100963.00;;;;2059871;28;20211;-65
2021/07/09 02:04:55;;;;;;;2.93;2.63;;;;;23.90;100969.00;;;;2059813;28;20211;-65
2021/07/09 02:05:55;;;;;;;2.15;2.05;;;;;23.90;100959.00;;;;2059695;28;20226;-65
2021/07/09 02:06:56;;;;;;;2.40;2.20;;;;;23.90;100959.00;;;;2059069;28;20298;-64
2021/07/09 02:07:56;;;;;;;2.63;2.40;;;;;23.90;100965.00;;;;2058866;28;20215;-64
2021/07/09 02:08:56;;;;;;;2.60;2.40;;;;;23.90;100958.00;;;;2058908;28;20211;-64
2021/07/09 02:09:58;;;;;;;2.50;2.30;;;;;23.90;100958.00;;;;2058823;28;20278;-64
2021/07/09 02:10:58;;;;;;;2.75;2.40;;;;;23.90;100952.00;;;;2058320;28;20215;-64
2021/07/09 02:11:58;;;;;;;2.97;2.43;;;;;23.90;100947.00;;;;2059159;28;20207;-65
2021/07/09 02:12:59;;;;;;;2.60;2.40;;;;;23.90;100951.00;;;;2059111;28;20223;-65
2021/07/09 02:13:59;;;;;;;3.43;2.90;;;;;23.90;100948.00;;;;2059264;28;20226;-65
2021/07/09 02:15:01;;;;;;;3.00;2.80;;;;;23.90;100952.00;;;;2058630;28;20466;-65
2021/07/09 02:16:01;;;;;;;3.00;2.50;;;;;23.90;100948.00;;;;2058491;28;20207;-64
2021/07/09 02:17:05;;;;;;;2.67;2.47;;;;;23.90;100948.00;;;;2058464;28;20301;-64
2021/07/09 02:18:06;;;;;;;2.70;2.50;;;;;23.90;100952.00;;;;2058030;28;20219;-65
2021/07/09 02:19:07;;;;;;;2.60;2.40;;;;;23.90;100946.00;;;;2058798;28;20227;-65
2021/07/09 02:20:09;;;;;;;2.40;2.13;;;;;23.90;100953.00;;;;2059126;28;21033;-65
2021/07/09 02:21:09;;;;;;;4.90;2.58;;;;;23.90;100954.00;;;;2058598;28;20262;-65
2021/07/09 02:22:11;;;;;;;2.70;2.50;;;;;23.90;100956.00;;;;2059319;28;21216;-64
2021/07/09 02:23:14;;;;;;;2.80;2.60;;;;;23.90;100957.00;;;;2058298;28;20289;-64
2021/07/09 02:24:15;;;;;;;2.33;2.13;;;;;23.90;100949.00;;;;2061135;28;20210;-64
2021/07/09 02:25:16;;;;;;;2.70;2.50;;;;;23.90;100954.00;;;;2054891;28;20215;-64
2021/07/09 02:26:16;;;;;;;2.67;2.47;;;;;23.90;100956.00;;;;2053454;28;20216;-64
2021/07/09 02:27:17;;;;;;;3.23;2.60;;;;;23.90;100952.00;;;;2059400;28;21269;-64
2021/07/09 02:28:17;;;;;;;2.30;2.17;;;;;23.90;100950.00;;;;2059638;28;20749;-64
2021/07/09 02:29:17;;;;;;;2.67;2.47;;;;;23.90;100963.00;;;;2059257;28;20241;-64
2021/07/09 02:30:18;;;;;;;2.60;2.40;;;;;23.90;100961.00;;;;2058834;28;20206;-66
2021/07/09 02:31:19;;;;;;;2.70;2.50;;;;;23.90;100956.00;;;;2058867;28;20222;-65
2021/07/09 02:32:19;;;;;;;2.50;2.30;;;;;23.90;100949.00;;;;2058786;28;20462;-65
2021/07/09 02:33:19;;;;;;;3.40;2.07;;;;;23.90;100962.00;;;;2058857;28;20973;-65
2021/07/09 02:34:20;;;;;;;2.73;2.53;;;;;23.90;100966.00;;;;2058352;28;20614;-65
2021/07/09 02:35:22;;;;;;;2.90;2.70;;;;;23.90;100963.00;;;;2059400;28;20702;-64
2021/07/09 02:36:22;;;;;;;2.75;2.55;;;;;23.90;100958.00;;;;2061569;28;20214;-65
2021/07/09 02:37:23;;;;;;;2.83;2.63;;;;;23.90;100963.00;;;;2058778;28;20226;-64
2021/07/09 02:38:23;;;;;;;2.70;2.50;;;;;23.90;100961.00;;;;2058716;28;20222;-64
2021/07/09 02:39:27;;;;;;;2.37;2.23;;;;;23.90;100954.00;;;;2058478;28;20319;-64
2021/07/09 02:40:28;;;;;;;2.28;2.08;;;;;23.90;100966.00;;;;2049656;28;20298;-64
2021/07/09 02:41:28;;;;;;;3.35;2.80;;;;;23.90;100971.00;;;;2048395;28;20224;-64
2021/07/09 02:42:29;;;;;;;2.40;2.20;;;;;23.90;100964.00;;;;2057991;28;20238;-65
2021/07/09 02:43:29;;;;;;;2.90;2.70;;;;;23.90;100967.00;;;;2057989;28;20250;-65
2021/07/09 02:44:29;;;;;;;2.77;2.10;;;;;23.90;100966.00;;;;2058008;28;20241;-65
2021/07/09 02:45:30;;;;;;;2.53;2.33;;;;;23.90;100968.00;;;;2058264;28;20215;-65
2021/07/09 02:46:30;;;;;;;2.33;2.23;;;;;23.90;100964.00;;;;2049267;28;20243;-64
2021/07/09 02:47:30;;;;;;;2.43;2.23;;;;;23.90;100960.00;;;;2049987;28;20222;-64
2021/07/09 02:48:31;;;;;;;2.97;2.77;;;;;23.90;100960.00;;;;2058565;28;20226;-64
2021/07/09 02:49:31;;;;;;;2.40;2.20;;;;;23.80;100970.00;;;;2058861;28;20223;-64
2021/07/09 02:50:31;;;;;;;2.60;2.40;;;;;23.80;100961.00;;;;2058107;28;20250;-64
2021/07/09 02:51:32;;;;;;;3.17;2.50;;;;;23.80;100965.00;;;;2058734;28;20215;-64
2021/07/09 02:52:32;;;;;;;3.13;2.47;;;;;23.80;100968.00;;;;2058174;28;20266;-64
2021/07/09 02:53:32;;;;;;;2.37;2.17;;;;;23.80;100968.00;;;;2060191;28;20217;-64
2021/07/09 02:54:33;;;;;;;2.73;2.50;;;;;23.90;100966.00;;;;2059160;28;20814;-65
2021/07/09 02:55:33;;;;;;;2.33;2.13;;;;;23.90;100966.00;;;;2058933;28;20241;-65
2021/07/09 02:56:33;;;;;;;2.50;2.30;;;;;23.80;100967.00;;;;2061442;28;20234;-65
2021/07/09 02:57:34;;;;;;;2.70;2.50;;;;;23.80;100968.00;;;;2058943;28;20220;-65
2021/07/09 02:58:35;;;;;;;2.60;2.40;;;;;23.80;100966.00;;;;2058922;28;20290;-64
2021/07/09 02:59:35;;;;;;;2.50;2.30;;;;;23.80;100968.00;;;;2058900;28;20535;-65
2021/07/09 03:00:35;;;;;;;2.60;2.43;;;;;23.80;100966.00;;;;2057426;28;20245;-65
2021/07/09 03:01:40;;;;;;;2.77;2.57;;;;;23.80;100971.00;;;;2058354;28;20226;-65
2021/07/09 03:02:41;;;;;;;2.65;2.45;;;;;23.80;100960.00;;;;2058665;28;20215;-65
2021/07/09 03:03:41;;;;;;;2.50;2.30;;;;;23.80;100961.00;;;;2057159;28;20219;-64
2021/07/09 03:04:41;;;;;;;2.50;2.37;;;;;23.90;100924.00;;;;2058045;28;20558;-64
2021/07/09 03:05:42;;;;;;;2.47;2.27;;;;;23.80;100963.00;;;;2058354;28;20576;-64
2021/07/09 03:06:42;;;;;;;2.50;2.30;;;;;23.80;100965.00;;;;2058679;28;21292;-64
2021/07/09 03:07:43;;;;;;;2.60;2.40;;;;;23.90;100966.00;;;;2058702;28;20219;-62
2021/07/09 03:08:43;;;;;;;3.00;2.43;;;;;23.80;100965.00;;;;2057919;28;20238;-64
2021/07/09 03:09:43;;;;;;;2.20;2.10;;;;;23.80;100970.00;;;;2057990;28;20746;-64
2021/07/09 03:10:44;;;;;;;2.50;2.30;;;;;23.90;100960.00;;;;2057418;28;20266;-64
2021/07/09 03:11:44;;;;;;;2.17;2.00;;;;;23.90;100965.00;;;;2058111;28;20218;-64
2021/07/09 03:12:44;;;;;;;2.40;2.20;;;;;23.80;100960.00;;;;2058014;28;20691;-64
2021/07/09 03:13:45;;;;;;;2.50;2.30;;;;;23.80;100972.00;;;;2058862;28;20223;-64
2021/07/09 03:14:45;;;;;;;2.47;2.27;;;;;23.80;100965.00;;;;2058663;28;20230;-64
2021/07/09 03:15:45;;;;;;;2.60;2.37;;;;;23.80;100965.00;;;;2058738;28;20207;-65
2021/07/09 03:16:46;;;;;;;2.47;2.27;;;;;23.90;100966.00;;;;2058693;28;20215;-65
2021/07/09 03:17:46;;;;;;;2.60;2.37;;;;;23.90;100962.00;;;;2057544;28;20290;-65
2021/07/09 03:18:46;;;;;;;2.67;2.47;;;;;23.90;100957.00;;;;2057766;28;20215;-64
2021/07/09 03:19:47;;;;;;;2.60;2.40;;;;;23.90;100952.00;;;;2057581;28;20309;-64
2021/07/09 03:20:47;;;;;;;2.70;2.50;;;;;23.80;100953.00;;;;2057464;28;20223;-65
2021/07/09 03:21:48;;;;;;;2.50;2.30;;;;;23.80;100958.00;;;;2049803;28;20252;-64
2021/07/09 03:22:48;;;;;;;3.00;2.70;;;;;23.80;100955.00;;;;2049825;28;20243;-64
2021/07/09 03:23:48;;;;;;;2.30;2.10;;;;;23.80;100958.00;;;;2060596;28;20215;-64
2021/07/09 03:24:49;;;;;;;4.40;3.20;;;;;23.80;100950.00;;;;2060692;28;20581;-64
2021/07/09 03:25:49;;;;;;;3.03;2.83;;;;;23.80;100952.00;;;;2059685;28;21047;-64
2021/07/09 03:26:49;;;;;;;2.47;2.20;;;;;23.80;100949.00;;;;2058577;28;20920;-64
2021/07/09 03:27:50;;;;;;;2.57;2.37;;;;;23.80;100954.00;;;;2057998;28;20276;-64
2021/07/09 03:28:50;;;;;;;2.47;2.27;;;;;23.80;100957.00;;;;2057848;28;20219;-65
2021/07/09 03:29:50;;;;;;;2.37;2.17;;;;;23.80;100952.00;;;;2057860;28;20227;-65
2021/07/09 03:30:51;;;;;;;2.70;2.50;;;;;23.80;100959.00;;;;2058111;28;20219;-65
2021/07/09 03:31:51;;;;;;;2.93;2.73;;;;;23.80;100954.00;;;;2058470;28;20266;-64
2021/07/09 03:32:51;;;;;;;2.60;2.40;;;;;23.80;100958.00;;;;2058299;28;20226;-64
2021/07/09 03:33:52;;;;;;;2.53;2.33;;;;;23.80;100956.00;;;;2058535;28;20221;-64
2021/07/09 03:34:52;;;;;;;2.63;2.40;;;;;23.80;100954.00;;;;2058501;28;20221;-64
2021/07/09 03:35:52;;;;;;;2.83;2.60;;;;;23.80;100955.00;;;;2056842;28;20222;-64
2021/07/09 03:36:53;;;;;;;2.93;2.57;;;;;23.80;100950.00;;;;2058463;28;20215;-64
2021/07/09 03:37:53;;;;;;;2.43;2.10;;;;;23.80;100943.00;;;;2058373;28;20216;-64
2021/07/09 03:38:54;;;;;;;2.97;2.77;;;;;23.80;100952.00;;;;2058703;28;20698;-64
2021/07/09 03:39:55;;;;;;;2.03;1.85;;;;;23.80;100954.00;;;;2058826;28;20208;-64
2021/07/09 03:40:55;;;;;;;2.57;2.37;;;;;23.80;100947.00;;;;2058517;28;20216;-64
2021/07/09 03:41:55;;;;;;;2.63;2.43;;;;;23.80;100949.00;;;;2059047;28;20214;-65
2021/07/09 03:42:56;;;;;;;2.70;2.33;;;;;23.80;100955.00;;;;2058683;28;20293;-64
2021/07/09 03:43:56;;;;;;;2.70;2.50;;;;;23.80;100952.00;;;;2057999;28;20214;-64
2021/07/09 03:44:56;;;;;;;2.50;2.30;;;;;23.80;100949.00;;;;2058390;28;20207;-65
2021/07/09 03:45:57;;;;;;;2.63;2.43;;;;;23.80;100952.00;;;;2057823;28;20199;-65
2021/07/09 03:46:57;;;;;;;2.10;2.00;;;;;23.80;100944.00;;;;2058389;28;20231;-65
2021/07/09 03:47:58;;;;;;;2.73;2.53;;;;;23.80;100949.00;;;;2059095;28;20241;-65
2021/07/09 03:48:58;;;;;;;2.43;2.20;;;;;23.80;100939.00;;;;2059166;28;20212;-65
2021/07/09 03:49:58;;;;;;;2.40;2.30;;;;;23.80;100948.00;;;;2058643;28;20215;-65
2021/07/09 03:50:59;;;;;;;3.00;2.80;;;;;23.80;100949.00;;;;2058532;28;20207;-64
2021/07/09 03:51:59;;;;;;;2.37;2.17;;;;;23.80;100946.00;;;;2058515;28;20257;-64
2021/07/09 03:52:59;;;;;;;3.13;2.87;;;;;23.80;100950.00;;;;2057785;28;20273;-64
2021/07/09 03:54:00;;;;;;;2.80;2.60;;;;;23.80;100950.00;;;;2060391;28;20207;-66
2021/07/09 03:55:00;;;;;;;3.27;2.47;;;;;23.80;100948.00;;;;2059226;28;20255;-64
2021/07/09 03:56:01;;;;;;;3.10;2.90;;;;;23.80;100944.00;;;;2061012;28;20221;-64
2021/07/09 03:57:02;;;;;;;2.50;2.30;;;;;23.80;100949.00;;;;2060447;28;20211;-65
2021/07/09 03:58:02;;;;;;;2.40;2.20;;;;;23.80;100943.00;;;;2058226;28;20219;-65
2021/07/09 03:59:03;;;;;;;2.43;2.33;;;;;23.80;100946.00;;;;2058260;28;20243;-65
2021/07/09 04:00:08;;;;;;;2.37;2.17;;;;;23.80;100948.00;;;;2057843;28;20219;-65
2021/07/09 04:01:08;;;;;;;2.33;2.15;;;;;23.80;100947.00;;;;2058399;28;20214;-64
2021/07/09 04:02:08;;;;;;;2.03;1.83;;;;;23.80;100941.00;;;;2059112;28;20222;-65
2021/07/09 04:03:09;;;;;;;2.70;2.50;;;;;23.80;100941.00;;;;2058975;28;20238;-65
2021/07/09 04:04:09;;;;;;;2.80;2.60;;;;;23.80;100951.00;;;;2058644;28;20211;-65
2021/07/09 04:05:10;;;;;;;2.43;2.23;;;;;23.80;100941.00;;;;2058270;28;20293;-65
2021/07/09 04:06:10;;;;;;;2.17;2.07;;;;;23.80;100948.00;;;;2058092;28;20226;-64
2021/07/09 04:07:11;;;;;;;3.00;2.70;;;;;23.80;100944.00;;;;2058191;28;20466;-65
2021/07/09 04:08:11;;;;;;;2.90;2.23;;;;;23.80;100947.00;;;;2057886;28;20222;-65
2021/07/09 04:09:11;;;;;;;2.57;2.30;;;;;23.80;100941.00;;;;2058635;28;20242;-64
2021/07/09 04:10:12;;;;;;;3.20;2.80;;;;;23.80;100942.00;;;;2058526;28;20219;-64
2021/07/09 04:11:12;;;;;;;2.37;2.17;;;;;23.80;100937.00;;;;2058354;28;20265;-65
2021/07/09 04:12:13;;;;;;;2.77;2.53;;;;;23.80;100953.00;;;;2059083;28;20218;-64
2021/07/09 04:13:13;;;;;;;3.00;2.80;;;;;23.80;100937.00;;;;2049146;28;20690;-64
2021/07/09 04:14:13;;;;;;;2.43;2.23;;;;;23.80;100943.00;;;;2049108;28;20678;-64
2021/07/09 04:15:14;;;;;;;2.37;2.17;;;;;23.80;100942.00;;;;2057861;28;20236;-65
2021/07/09 04:16:14;;;;;;;2.97;2.77;;;;;23.80;100952.00;;;;2056146;28;20223;-67
2021/07/09 04:17:14;;;;;;;2.77;2.57;;;;;23.80;100949.00;;;;2053156;28;20326;-67
2021/07/09 04:18:15;;;;;;;3.70;2.60;;;;;23.80;100941.00;;;;2057911;28;20231;-68
2021/07/09 04:19:15;;;;;;;2.30;2.20;;;;;23.80;100941.00;;;;2058940;28;20725;-68
2021/07/09 04:20:15;;;;;;;3.47;2.97;;;;;23.80;100951.00;;;;2058369;28;20218;-67
2021/07/09 04:21:16;;;;;;;2.33;2.23;;;;;23.80;100945.00;;;;2049974;28;20381;-67
2021/07/09 04:22:16;;;;;;;2.93;2.73;;;;;23.80;100953.00;;;;2050058;28;20216;-67
2021/07/09 04:23:17;;;;;;;2.90;2.70;;;;;23.80;100955.00;;;;2058821;28;20219;-67
2021/07/09 04:24:17;;;;;;;2.80;2.60;;;;;23.80;100951.00;;;;2060744;28;20226;-67
2021/07/09 04:25:17;;;;;;;2.40;2.20;;;;;23.80;100952.00;;;;2059277;28;20251;-67
2021/07/09 04:26:18;;;;;;;2.60;2.40;;;;;23.80;100956.00;;;;2059004;28;20223;-67
2021/07/09 04:27:18;;;;;;;3.00;2.80;;;;;23.80;100944.00;;;;2058272;28;20219;-67
2021/07/09 04:28:18;;;;;;;2.63;2.43;;;;;23.80;100944.00;;;;2057506;28;20222;-67
2021/07/09 04:29:19;;;;;;;2.43;2.30;;;;;23.80;100957.00;;;;2058284;28;20219;-68
2021/07/09 04:30:19;;;;;;;3.23;3.00;;;;;23.80;100953.00;;;;2056735;28;20225;-68
2021/07/09 04:31:20;;;;;;;2.60;2.40;;;;;23.80;100949.00;;;;2057690;28;20266;-68
2021/07/09 04:32:20;;;;;;;3.40;3.10;;;;;23.80;100948.00;;;;2057278;28;20230;-68
2021/07/09 04:33:22;;;;;;;3.40;3.10;;;;;23.80;100961.00;;;;2057527;28;20215;-68
2021/07/09 04:34:22;;;;;;;2.70;2.50;;;;;23.80;100951.00;;;;2058158;28;20669;-67
2021/07/09 04:35:23;;;;;;;2.87;2.60;;;;;23.80;100955.00;;;;2058659;28;20227;-67
2021/07/09 04:36:23;;;;;;;3.50;3.20;;;;;23.80;100962.00;;;;2058761;28;20250;-67
2021/07/09 04:37:23;;;;;;;3.33;2.80;;;;;23.80;100951.00;;;;2058809;28;20237;-67
2021/07/09 04:38:24;;;;;;;3.90;3.50;;;;;23.80;100959.00;;;;2057792;28;20238;-67
2021/07/09 04:39:24;;;;;;;3.50;3.20;;;;;23.80;100955.00;;;;2057270;28;20231;-67
2021/07/09 04:40:24;;;;;;;3.10;2.90;;;;;23.80;100954.00;;;;2056855;28;20269;-67
2021/07/09 04:41:25;;;;;;;3.50;3.20;;;;;23.80;100959.00;;;;2057589;28;20241;-67
2021/07/09 04:42:25;;;;;;;3.03;2.73;;;;;23.80;100954.00;;;;2057621;28;20219;-65
2021/07/09 04:43:25;;;;;;;3.60;3.30;;;;;23.80;100953.00;;;;2055311;28;20259;-67
2021/07/09 04:44:26;;;;;;;3.60;3.30;;;;;23.80;100957.00;;;;2058278;28;20251;-68
2021/07/09 04:45:26;;;;;;;3.17;2.97;;;;;23.80;100957.00;;;;2058355;28;20227;-68
2021/07/09 04:46:26;;;;;;;2.57;2.37;;;;;23.80;100951.00;;;;2058377;28;20222;-68
2021/07/09 04:47:27;;;;;;;4.57;3.10;;;;;23.80;100960.00;;;;2057737;28;20239;-68
2021/07/09 04:48:27;;;;;;;3.87;3.50;;;;;23.80;100952.00;;;;2057503;28;20223;-68
2021/07/09 04:49:27;;;;;;;4.60;4.20;;;;;23.80;100965.00;;;;2057614;28;20265;-67
2021/07/09 04:50:28;;;;;;;3.80;3.50;;;;;23.80;100961.00;;;;2056868;28;20594;-68
2021/07/09 04:51:28;;;;;;;4.07;3.77;;;;;23.80;100973.00;;;;2057626;28;20497;-68
2021/07/09 04:52:28;;;;;;;3.17;2.87;;;;;23.80;100972.00;;;;2058487;28;20232;-68
2021/07/09 04:53:29;;;;;;;3.00;2.80;;;;;23.80;100963.00;;;;2066412;28;20226;-68
2021/07/09 04:54:29;;;;;;;3.20;3.00;;;;;23.80;100959.00;;;;2071307;28;20221;-68
2021/07/09 04:55:30;;;;;;;3.53;3.23;;;;;23.80;100965.00;;;;2066388;28;20457;-68
2021/07/09 04:56:30;;;;;;;3.33;3.07;;;;;23.80;100966.00;;;;2066218;28;20215;-68
2021/07/09 04:57:30;;;;;;;3.87;3.57;;;;;23.80;100965.00;;;;2066822;28;20233;-68
2021/07/09 04:58:31;;;;;;;3.60;3.30;;;;;23.80;100961.00;;;;2065896;28;20234;-68
2021/07/09 04:59:31;;;;;;;3.73;3.43;;;;;23.80;100963.00;;;;2066806;28;20245;-67
2021/07/09 05:00:31;;;;;;;4.00;3.70;;;;;23.80;100968.00;;;;2064934;28;20225;-67